createdAt,value
2019-04-30T00:02:34.406Z,100834.83
2019-04-30T00:05:10.063Z,100844.47
2019-04-30T00:07:50.892Z,100848.00
2019-04-30T00:10:29.512Z,100851.59
2019-04-30T00:13:06.114Z,100858.41
2019-04-30T00:15:45.239Z,100865.56
2019-04-30T00:18:22.909Z,100873.30
2019-04-30T00:21:01.118Z,100876.47
2019-04-30T00:23:38.386Z,100880.20
2019-04-30T00:26:17.298Z,100885.38
2019-04-30T00:28:55.328Z,100881.88
2019-04-30T00:31:34.960Z,100889.91
2019-04-30T00:34:12.255Z,100891.72
2019-04-30T00:36:50.175Z,100902.16
2019-04-30T00:39:27.599Z,100903.41
2019-04-30T00:42:05.684Z,100903.13
2019-04-30T00:44:42.961Z,100908.78
2019-04-30T00:47:20.116Z,100909.90
2019-04-30T00:50:00.219Z,100913.84
2019-04-30T00:52:37.699Z,100923.38
2019-04-30T00:55:15.149Z,100929.36
2019-04-30T00:57:53.599Z,100936.27
2019-04-30T01:00:32.353Z,100938.36
2019-04-30T01:03:16.745Z,100940.36
2019-04-30T01:05:55.177Z,100950.69
2019-04-30T01:08:35.840Z,100963.63
2019-04-30T01:11:15.345Z,100976.56
2019-04-30T01:13:54.006Z,100976.30
2019-04-30T01:16:33.100Z,100984.94
2019-04-30T01:19:26.487Z,100986.95
2019-04-30T01:21:50.976Z,100993.17
2019-04-30T01:24:31.589Z,101001.03
2019-04-30T01:27:10.574Z,101000.32
2019-04-30T01:29:48.846Z,101003.86
2019-04-30T01:32:26.362Z,101001.36
2019-04-30T01:35:04.887Z,100995.48
2019-04-30T01:37:41.665Z,100989.15
2019-04-30T01:40:20.424Z,100997.20
2019-04-30T01:42:59.300Z,101002.20
2019-04-30T01:45:38.693Z,100996.58
2019-04-30T01:48:16.555Z,100987.66
2019-04-30T01:50:54.555Z,100987.61
2019-04-30T01:53:32.072Z,100984.45
2019-04-30T01:56:20.982Z,100980.70
2019-04-30T01:59:01.415Z,100976.23
2019-04-30T02:01:40.731Z,100970.45
2019-04-30T02:04:19.560Z,100978.68
2019-04-30T02:06:59.192Z,100977.52
2019-04-30T02:09:38.818Z,100981.03
2019-04-30T02:12:19.725Z,100977.72
2019-04-30T02:14:59.662Z,100978.11
2019-04-30T02:17:38.868Z,100975.93
2019-04-30T02:20:16.414Z,100974.94
2019-04-30T02:22:54.077Z,100966.85
2019-04-30T02:25:31.603Z,100970.33
2019-04-30T02:28:09.309Z,100966.86
2019-04-30T02:30:50.075Z,100966.31
2019-04-30T02:33:29.850Z,100969.16
2019-04-30T02:36:40.569Z,100958.30
2019-04-30T02:39:20.360Z,100961.12
2019-04-30T02:41:59.768Z,100958.87
2019-04-30T02:44:40.556Z,100952.14
2019-04-30T02:47:20.292Z,100963.77
2019-04-30T02:50:14.129Z,100959.23
2019-04-30T02:52:41.594Z,100958.72
2019-04-30T02:55:22.073Z,100958.72
2019-04-30T02:57:59.598Z,100958.43
2019-04-30T03:00:39.409Z,100955.11
2019-04-30T03:03:16.524Z,100954.20
2019-04-30T03:05:54.823Z,100958.33
2019-04-30T03:08:32.161Z,100947.97
2019-04-30T03:11:11.218Z,100953.77
2019-04-30T03:13:49.514Z,100956.53
2019-04-30T03:16:34.870Z,100959.31
2019-04-30T03:19:50.202Z,100964.85
2019-04-30T03:22:30.179Z,100962.15
2019-04-30T03:25:09.436Z,100962.05
2019-04-30T03:27:46.557Z,100967.22
2019-04-30T03:30:23.926Z,100967.92
2019-04-30T03:33:03.011Z,100964.39
2019-04-30T03:35:46.837Z,100963.76
2019-04-30T03:38:20.983Z,100968.66
2019-04-30T03:41:00.195Z,100967.97
2019-04-30T03:43:39.878Z,100969.55
2019-04-30T03:46:16.359Z,100962.39
2019-04-30T03:48:56.114Z,100967.94
2019-04-30T03:51:33.049Z,100969.64
2019-04-30T03:54:10.857Z,100963.28
2019-04-30T03:56:50.180Z,100953.77
2019-04-30T03:59:29.852Z,100948.58
2019-04-30T04:02:36.763Z,100942.70
2019-04-30T04:05:29.971Z,100934.74
2019-04-30T04:08:43.209Z,100934.39
2019-04-30T04:11:34.514Z,100938.29
2019-04-30T04:14:11.862Z,100932.50
2019-04-30T04:16:50.791Z,100919.59
2019-04-30T04:19:29.946Z,100924.77
2019-04-30T04:22:11.924Z,100925.91
2019-04-30T04:24:50.090Z,100924.20
2019-04-30T04:27:26.557Z,100925.30
2019-04-30T04:30:04.251Z,100923.70
2019-04-30T04:32:42.280Z,100925.85
2019-04-30T04:35:20.155Z,100914.91
2019-04-30T04:38:00.425Z,100915.29
2019-04-30T04:40:40.021Z,100902.28
2019-04-30T04:43:17.231Z,100898.66
2019-04-30T04:45:54.715Z,100893.91
2019-04-30T04:48:33.956Z,100890.87
2019-04-30T04:51:27.595Z,100880.80
2019-04-30T04:53:51.161Z,100868.81
2019-04-30T04:56:30.495Z,100872.62
2019-04-30T04:59:10.302Z,100871.69
2019-04-30T05:01:48.933Z,100862.73
2019-04-30T05:04:26.304Z,100856.42
2019-04-30T05:07:04.095Z,100847.79
2019-04-30T05:09:41.898Z,100847.50
2019-04-30T05:12:19.702Z,100846.63
2019-04-30T05:14:57.118Z,100833.55
2019-04-30T05:17:34.832Z,100838.24
2019-04-30T05:20:12.932Z,100823.52
2019-04-30T05:22:51.440Z,100819.58
2019-04-30T05:25:29.605Z,100821.44
2019-04-30T05:28:08.691Z,100822.48
2019-04-30T05:30:46.581Z,100814.83
2019-04-30T05:33:23.906Z,100810.24
2019-04-30T05:36:01.289Z,100788.13
2019-04-30T05:38:39.162Z,100798.86
2019-04-30T05:41:19.273Z,100788.02
2019-04-30T05:43:59.159Z,100783.80
2019-04-30T05:46:39.654Z,100773.59
2019-04-30T05:49:20.232Z,100768.25
2019-04-30T05:51:56.945Z,100765.03
2019-04-30T05:54:35.549Z,100750.13
2019-04-30T05:57:12.918Z,100738.62
2019-04-30T05:59:50.512Z,100728.22
2019-04-30T06:02:33.096Z,100719.59
2019-04-30T06:05:08.856Z,100717.91
2019-04-30T06:07:46.412Z,100721.30
2019-04-30T06:10:42.379Z,100716.81
2019-04-30T06:13:29.080Z,100707.22
2019-04-30T06:16:09.985Z,100688.27
2019-04-30T06:18:48.549Z,100682.25
2019-04-30T06:21:25.449Z,100679.12
2019-04-30T06:24:03.346Z,100678.83
2019-04-30T06:26:41.807Z,100680.91
2019-04-30T06:29:19.337Z,100681.02
2019-04-30T06:31:58.739Z,100682.78
2019-04-30T06:34:39.506Z,100668.85
2019-04-30T06:37:16.580Z,100656.64
2019-04-30T06:39:54.101Z,100646.63
2019-04-30T06:42:31.301Z,100645.94
2019-04-30T06:45:09.548Z,100639.16
2019-04-30T06:47:48.980Z,100633.93
2019-04-30T06:50:29.276Z,100627.59
2019-04-30T06:53:06.687Z,100628.20
2019-04-30T06:55:44.311Z,100624.45
2019-04-30T06:58:22.881Z,100614.08
2019-04-30T07:01:00.792Z,100608.45
2019-04-30T07:03:39.783Z,100600.91
2019-04-30T07:06:27.518Z,100593.30
2019-04-30T07:09:06.568Z,100587.29
2019-04-30T07:11:49.346Z,100570.91
2019-04-30T07:14:29.178Z,100564.55
2019-04-30T07:17:06.928Z,100571.06
2019-04-30T07:19:56.055Z,100564.98
2019-04-30T07:22:39.506Z,100565.41
2019-04-30T07:25:03.820Z,100557.20
2019-04-30T07:27:41.473Z,100550.83
2019-04-30T07:30:19.692Z,100551.56
2019-04-30T07:32:57.387Z,100542.72
2019-04-30T07:35:34.855Z,100541.40
2019-04-30T07:38:13.806Z,100541.04
2019-04-30T07:40:51.487Z,100538.48
2019-04-30T07:43:29.004Z,100541.73
2019-04-30T07:46:06.607Z,100535.39
2019-04-30T07:48:44.443Z,100524.75
2019-04-30T07:51:23.183Z,100524.36
2019-04-30T07:54:01.388Z,100511.29
2019-04-30T07:56:41.528Z,100515.77
2019-04-30T07:59:20.149Z,100507.99
2019-04-30T08:02:07.490Z,100504.92
2019-04-30T08:05:11.348Z,100500.79
2019-04-30T08:07:49.345Z,100499.95
2019-04-30T08:10:27.301Z,100487.37
2019-04-30T08:13:10.067Z,100481.66
2019-04-30T08:15:44.565Z,100476.62
2019-04-30T08:18:22.210Z,100473.53
2019-04-30T08:21:01.034Z,100467.34
2019-04-30T08:23:39.772Z,100464.48
2019-04-30T08:26:18.757Z,100465.00
2019-04-30T08:28:59.631Z,100467.89
2019-04-30T08:31:40.687Z,100462.27
2019-04-30T08:34:16.942Z,100461.70
2019-04-30T08:36:54.868Z,100449.11
2019-04-30T08:39:32.934Z,100453.25
2019-04-30T08:42:10.883Z,100451.50
2019-04-30T08:44:48.582Z,100450.59
2019-04-30T08:47:26.016Z,100443.65
2019-04-30T08:50:04.517Z,100440.14
2019-04-30T08:52:42.074Z,100433.41
2019-04-30T08:55:22.362Z,100422.68
2019-04-30T08:58:09.308Z,100423.94
2019-04-30T09:00:38.550Z,100410.15
2019-04-30T09:03:19.421Z,100423.08
2019-04-30T09:06:09.272Z,100420.54
2019-04-30T09:08:49.007Z,100429.95
2019-04-30T09:11:32.197Z,100431.48
2019-04-30T09:14:06.041Z,100430.48
2019-04-30T09:16:43.484Z,100425.39
2019-04-30T09:19:21.954Z,100438.64
2019-04-30T09:22:00.252Z,100436.02
2019-04-30T09:24:39.214Z,100443.80
2019-04-30T09:27:16.746Z,100444.76
2019-04-30T09:29:58.817Z,100448.31
2019-04-30T09:32:38.991Z,100444.13
2019-04-30T09:35:19.614Z,100441.75
2019-04-30T09:37:59.715Z,100444.41
2019-04-30T09:40:39.839Z,100446.64
2019-04-30T09:43:18.304Z,100441.07
2019-04-30T09:45:55.694Z,100439.59
2019-04-30T09:48:33.041Z,100438.75
2019-04-30T09:51:10.948Z,100445.75
2019-04-30T09:53:56.820Z,100443.50
2019-04-30T09:56:29.428Z,100445.04
2019-04-30T09:59:09.015Z,100440.70
2019-04-30T10:01:46.047Z,100427.16
2019-04-30T10:04:24.694Z,100429.64
2019-04-30T10:07:02.968Z,100427.08
2019-04-30T10:09:40.739Z,100424.22
2019-04-30T10:12:19.580Z,100437.23
2019-04-30T10:14:59.307Z,100438.19
2019-04-30T10:17:43.770Z,100441.78
2019-04-30T10:20:24.165Z,100435.28
2019-04-30T10:23:01.801Z,100440.89
2019-04-30T10:25:40.245Z,100437.53
2019-04-30T10:28:19.638Z,100446.87
2019-04-30T10:30:57.935Z,100466.73
2019-04-30T10:33:35.173Z,100488.37
2019-04-30T10:36:12.990Z,100486.11
2019-04-30T10:38:51.687Z,100487.17
2019-04-30T10:41:29.249Z,100484.73
2019-04-30T10:44:08.892Z,100486.53
2019-04-30T10:46:48.082Z,100486.42
2019-04-30T10:49:25.421Z,100499.77
2019-04-30T10:52:02.651Z,100511.02
2019-04-30T10:54:39.923Z,100523.53
2019-04-30T10:57:18.436Z,100531.79
2019-04-30T10:59:55.845Z,100535.59
2019-04-30T11:02:33.230Z,100534.36
2019-04-30T11:05:10.955Z,100535.75
2019-04-30T11:07:49.762Z,100543.20
2019-04-30T11:10:28.665Z,100557.74
2019-04-30T11:13:06.435Z,100562.37
2019-04-30T11:15:43.987Z,100561.80
2019-04-30T11:18:22.558Z,100563.73
2019-04-30T11:21:00.369Z,100560.43
2019-04-30T11:23:40.863Z,100571.54
2019-04-30T11:26:19.195Z,100577.78
2019-04-30T11:28:58.420Z,100585.48
2019-04-30T11:31:51.547Z,100585.50
2019-04-30T11:34:30.159Z,100590.67
2019-04-30T11:37:07.644Z,100595.30
2019-04-30T11:39:45.520Z,100588.02
2019-04-30T11:42:26.587Z,100593.87
2019-04-30T11:45:03.917Z,100604.55
2019-04-30T11:47:52.893Z,100602.27
2019-04-30T11:50:21.504Z,100600.44
2019-04-30T11:53:13.981Z,100609.66
2019-04-30T11:55:39.089Z,100624.88
2019-04-30T11:58:21.705Z,100632.64
2019-04-30T12:00:56.568Z,100633.64
2019-04-30T12:03:34.642Z,100635.95
2019-04-30T12:06:12.014Z,100649.08
2019-04-30T12:09:05.926Z,100661.34
2019-04-30T12:11:45.260Z,100660.56
2019-04-30T12:14:24.101Z,100671.02
2019-04-30T12:17:01.871Z,100666.47
2019-04-30T12:19:40.195Z,100668.47
2019-04-30T12:22:20.310Z,100665.93
2019-04-30T12:25:04.860Z,100668.30
2019-04-30T12:27:38.676Z,100682.38
2019-04-30T12:30:16.546Z,100683.34
2019-04-30T12:32:55.528Z,100697.24
2019-04-30T12:35:32.531Z,100701.83
2019-04-30T12:38:10.279Z,100716.98
2019-04-30T12:40:47.519Z,100714.69
2019-04-30T12:43:25.170Z,100722.81
2019-04-30T12:46:05.590Z,100727.02
2019-04-30T12:49:04.645Z,100739.35
2019-04-30T12:51:58.617Z,100744.09
2019-04-30T12:54:45.526Z,100754.59
2019-04-30T12:57:36.538Z,100748.12
2019-04-30T13:00:19.521Z,100757.81
2019-04-30T13:02:56.605Z,100768.59
2019-04-30T13:05:35.089Z,100771.55
2019-04-30T13:08:12.881Z,100773.90
2019-04-30T13:10:51.432Z,100772.45
2019-04-30T13:13:31.713Z,100775.72
2019-04-30T13:16:10.963Z,100779.44
2019-04-30T13:18:49.399Z,100785.91
2019-04-30T13:21:28.487Z,100790.52
2019-04-30T13:24:05.713Z,100795.84
2019-04-30T13:26:43.510Z,100811.36
2019-04-30T13:29:27.265Z,100804.70
2019-04-30T13:32:04.290Z,100815.95
2019-04-30T13:34:50.375Z,100821.17
2019-04-30T13:37:36.077Z,100821.86
2019-04-30T13:40:31.874Z,100837.64
2019-04-30T13:43:10.027Z,100843.00
2019-04-30T13:45:48.694Z,100850.36
2019-04-30T13:48:28.372Z,100851.59
2019-04-30T13:51:06.139Z,100846.23
2019-04-30T13:53:43.827Z,100861.27
2019-04-30T13:56:21.242Z,100862.22
2019-04-30T13:58:58.890Z,100859.16
2019-04-30T14:01:38.950Z,100864.91
2019-04-30T14:04:52.904Z,100865.68
2019-04-30T14:07:51.570Z,100871.77
2019-04-30T14:10:32.646Z,100875.64
2019-04-30T14:13:11.134Z,100875.75
2019-04-30T14:15:49.304Z,100891.30
2019-04-30T14:18:30.978Z,100887.09
2019-04-30T14:21:09.318Z,100881.89
2019-04-30T14:23:46.760Z,100885.31
2019-04-30T14:26:24.466Z,100887.55
2019-04-30T14:29:01.907Z,100894.91
2019-04-30T14:31:40.082Z,100895.06
2019-04-30T14:34:18.588Z,100896.08
2019-04-30T14:36:56.832Z,100891.36
2019-04-30T14:39:34.565Z,100889.86
2019-04-30T14:42:13.169Z,100885.45
2019-04-30T14:44:53.688Z,100889.00
2019-04-30T14:47:41.405Z,100896.41
2019-04-30T14:50:20.778Z,100900.61
2019-04-30T14:53:11.287Z,100904.13
2019-04-30T14:56:08.839Z,100901.47
2019-04-30T14:59:00.728Z,100901.77
2019-04-30T15:01:44.211Z,100896.31
2019-04-30T15:04:22.493Z,100895.62
2019-04-30T15:06:59.973Z,100897.02
2019-04-30T15:09:38.518Z,100896.84
2019-04-30T15:12:15.674Z,100902.65
2019-04-30T15:14:53.617Z,100899.78
2019-04-30T15:17:30.708Z,100911.70
2019-04-30T15:20:08.814Z,100911.37
2019-04-30T15:22:58.657Z,100921.35
2019-04-30T15:25:38.786Z,100921.18
2019-04-30T15:28:16.156Z,100933.23
2019-04-30T15:30:54.141Z,100941.19
2019-04-30T15:34:02.470Z,100946.20
2019-04-30T15:36:33.771Z,100944.73
2019-04-30T15:39:40.421Z,100952.97
2019-04-30T15:42:19.982Z,100947.70
2019-04-30T15:44:59.269Z,100937.45
2019-04-30T15:47:38.636Z,100933.73
2019-04-30T15:50:19.557Z,100923.79
2019-04-30T15:52:58.521Z,100933.27
2019-04-30T15:55:36.373Z,100934.47
2019-04-30T15:58:21.883Z,100936.05
2019-04-30T16:00:59.974Z,100936.36
2019-04-30T16:03:39.314Z,100947.58
2019-04-30T16:06:18.462Z,100941.45
2019-04-30T16:09:00.158Z,100943.56
2019-04-30T16:11:54.752Z,100947.49
2019-04-30T16:14:36.311Z,100939.78
2019-04-30T16:17:20.474Z,100936.38
2019-04-30T16:19:58.441Z,100930.27
2019-04-30T16:22:39.081Z,100926.47
2019-04-30T16:25:16.522Z,100922.08
2019-04-30T16:27:54.488Z,100916.13
2019-04-30T16:30:33.359Z,100912.97
2019-04-30T16:33:10.404Z,100918.67
2019-04-30T16:35:51.133Z,100911.78
2019-04-30T16:38:28.947Z,100904.54
2019-04-30T16:41:08.894Z,100900.63
2019-04-30T16:43:48.660Z,100895.19
2019-04-30T16:46:30.875Z,100894.09
2019-04-30T16:49:07.601Z,100890.70
2019-04-30T16:51:46.103Z,100882.88
2019-04-30T16:54:25.207Z,100878.30
2019-04-30T16:57:06.100Z,100874.06
2019-04-30T16:59:43.682Z,100874.33
2019-04-30T17:02:26.210Z,100866.96
2019-04-30T17:05:11.200Z,100858.05
2019-04-30T17:08:06.386Z,100857.48
2019-04-30T17:10:56.163Z,100854.67
2019-04-30T17:13:44.775Z,100845.84
2019-04-30T17:16:24.104Z,100844.20
2019-04-30T17:19:01.865Z,100842.60
2019-04-30T17:21:39.579Z,100838.21
2019-04-30T17:24:19.322Z,100834.00
2019-04-30T17:26:56.644Z,100824.07
2019-04-30T17:29:34.526Z,100828.97
2019-04-30T17:32:11.715Z,100829.13
2019-04-30T17:34:51.278Z,100812.48
2019-04-30T17:37:31.420Z,100806.27
2019-04-30T17:40:09.387Z,100804.88
2019-04-30T17:42:47.553Z,100804.49
2019-04-30T17:45:25.346Z,100799.66
2019-04-30T17:48:02.697Z,100800.09
2019-04-30T17:50:39.794Z,100794.52
2019-04-30T17:53:18.956Z,100781.95
2019-04-30T17:56:00.521Z,100786.53
2019-04-30T17:58:38.972Z,100780.47
2019-04-30T18:01:16.874Z,100774.08
2019-04-30T18:03:54.242Z,100765.85
2019-04-30T18:06:33.767Z,100760.14
2019-04-30T18:09:11.827Z,100757.39
2019-04-30T18:11:49.709Z,100760.64
2019-04-30T18:14:28.533Z,100750.74
2019-04-30T18:17:06.313Z,100750.07
2019-04-30T18:19:59.602Z,100744.17
2019-04-30T18:23:05.935Z,100742.88
2019-04-30T18:25:57.327Z,100740.66
2019-04-30T18:28:36.210Z,100736.00
2019-04-30T18:31:13.490Z,100729.77
2019-04-30T18:33:51.940Z,100725.89
2019-04-30T18:36:30.287Z,100718.62
2019-04-30T18:39:10.638Z,100717.91
2019-04-30T18:41:49.001Z,100716.00
2019-04-30T18:44:27.184Z,100723.01
2019-04-30T18:47:04.095Z,100716.42
2019-04-30T18:49:42.099Z,100714.20
2019-04-30T18:52:19.636Z,100705.81
2019-04-30T18:54:59.387Z,100709.58
2019-04-30T18:57:37.176Z,100714.13
2019-04-30T19:00:20.771Z,100712.22
2019-04-30T19:02:58.659Z,100708.83
2019-04-30T19:05:36.916Z,100706.22
2019-04-30T19:08:39.463Z,100704.48
2019-04-30T19:11:33.717Z,100703.33
2019-04-30T19:14:29.379Z,100700.03
2019-04-30T19:17:40.973Z,100697.69
2019-04-30T19:20:25.073Z,100695.70
2019-04-30T19:23:03.229Z,100697.13
2019-04-30T19:25:40.992Z,100689.94
2019-04-30T19:28:19.007Z,100691.48
2019-04-30T19:31:00.380Z,100688.81
2019-04-30T19:33:36.242Z,100690.81
2019-04-30T19:36:14.249Z,100679.34
2019-04-30T19:38:52.384Z,100681.30
2019-04-30T19:41:30.726Z,100683.56
2019-04-30T19:44:09.051Z,100672.55
2019-04-30T19:46:48.777Z,100673.71
2019-04-30T19:49:26.149Z,100671.83
2019-04-30T19:52:08.430Z,100674.08
2019-04-30T19:54:43.517Z,100673.84
2019-04-30T19:57:21.226Z,100664.72
2019-04-30T19:59:59.177Z,100664.20
2019-04-30T20:02:39.116Z,100663.48
2019-04-30T20:05:19.576Z,100665.20
2019-04-30T20:07:59.149Z,100658.72
2019-04-30T20:10:36.393Z,100665.99
2019-04-30T20:13:27.827Z,100670.94
2019-04-30T20:15:54.612Z,100669.05
2019-04-30T20:18:32.638Z,100671.04
2019-04-30T20:21:14.203Z,100667.47
2019-04-30T20:23:51.293Z,100664.14
2019-04-30T20:26:29.129Z,100663.38
2019-04-30T20:29:08.870Z,100660.33
2019-04-30T20:31:48.786Z,100660.42
2019-04-30T20:34:26.238Z,100657.13
2019-04-30T20:37:04.247Z,100655.35
2019-04-30T20:39:50.604Z,100653.16
2019-04-30T20:42:28.328Z,100648.11
2019-04-30T20:45:08.971Z,100650.74
2019-04-30T20:47:50.670Z,100662.19
2019-04-30T20:50:31.382Z,100653.53
2019-04-30T20:53:09.851Z,100658.56
2019-04-30T20:55:46.980Z,100659.42
2019-04-30T20:58:24.858Z,100665.20
2019-04-30T21:01:06.394Z,100671.52
2019-04-30T21:03:41.357Z,100674.02
2019-04-30T21:06:19.805Z,100673.88
2019-04-30T21:08:57.723Z,100679.10
2019-04-30T21:11:38.575Z,100683.29
2019-04-30T21:14:20.194Z,100685.16
2019-04-30T21:16:58.926Z,100694.53
2019-04-30T21:19:38.882Z,100692.23
2019-04-30T21:22:16.435Z,100699.03
2019-04-30T21:24:54.107Z,100695.95
2019-04-30T21:27:31.542Z,100698.05
2019-04-30T21:30:09.724Z,100698.73
2019-04-30T21:33:11.543Z,100706.62
2019-04-30T21:35:59.272Z,100704.17
2019-04-30T21:38:38.833Z,100700.64
2019-04-30T21:41:16.733Z,100714.66
2019-04-30T21:43:54.524Z,100720.41
2019-04-30T21:46:32.108Z,100714.12
2019-04-30T21:49:12.171Z,100724.24
2019-04-30T21:51:51.408Z,100724.13
2019-04-30T21:54:30.560Z,100720.39
2019-04-30T21:57:08.214Z,100725.00
2019-04-30T21:59:45.439Z,100732.06
2019-04-30T22:02:23.397Z,100726.16
2019-04-30T22:05:00.922Z,100733.78
2019-04-30T22:07:39.295Z,100747.92
2019-04-30T22:10:16.806Z,100747.34
2019-04-30T22:12:55.126Z,100751.57
2019-04-30T22:15:33.077Z,100745.06
2019-04-30T22:18:10.732Z,100748.41
2019-04-30T22:20:52.628Z,100745.21
2019-04-30T22:23:34.246Z,100745.79
2019-04-30T22:26:11.882Z,100746.37
2019-04-30T22:28:49.597Z,100750.52
2019-04-30T22:31:26.564Z,100760.64
2019-04-30T22:34:06.086Z,100762.99
2019-04-30T22:36:45.963Z,100762.60
2019-04-30T22:39:50.054Z,100764.32
2019-04-30T22:42:35.105Z,100768.91
2019-04-30T22:45:31.671Z,100770.58
2019-04-30T22:48:09.417Z,100776.28
2019-04-30T22:50:50.236Z,100774.31
2019-04-30T22:53:28.934Z,100779.09
2019-04-30T22:56:07.254Z,100781.56
2019-04-30T22:58:44.591Z,100779.78
2019-04-30T23:01:43.408Z,100789.42
2019-04-30T23:04:30.132Z,100789.62
2019-04-30T23:07:08.182Z,100795.12
2019-04-30T23:09:45.760Z,100792.00
2019-04-30T23:12:22.895Z,100799.06
2019-04-30T23:14:59.948Z,100795.43
2019-04-30T23:17:38.057Z,100790.20
2019-04-30T23:20:16.396Z,100793.45
2019-04-30T23:22:54.444Z,100800.88
2019-04-30T23:25:34.520Z,100807.55
2019-04-30T23:28:14.181Z,100808.89
2019-04-30T23:30:51.609Z,100814.25
2019-04-30T23:33:29.531Z,100815.46
2019-04-30T23:36:07.478Z,100813.17
2019-04-30T23:38:45.464Z,100817.38
2019-04-30T23:41:23.859Z,100822.16
2019-04-30T23:44:01.248Z,100821.88
2019-04-30T23:46:39.983Z,100823.66
2019-04-30T23:49:18.002Z,100831.45
2019-04-30T23:51:56.237Z,100842.70
2019-04-30T23:54:35.182Z,100848.80
2019-04-30T23:57:14.194Z,100853.42
2019-04-30T23:59:51.659Z,100856.81
